sensor_id;sensor_type;location;lat;lon;timestamp;temperature;humidity
79049;DHT22;68680;50.764;6.120;2023-12-22T00:00:38;6.80;99.90
79049;DHT22;68680;50.764;6.120;2023-12-22T00:03:04;6.80;99.90
79049;DHT22;68680;50.764;6.120;2023-12-22T00:05:30;6.90;99.90
79049;DHT22;68680;50.764;6.120;2023-12-22T00:07:55;6.90;99.90
79049;DHT22;68680;50.764;6.120;2023-12-22T00:10:21;7.00;99.90
79049;DHT22;68680;50.764;6.120;2023-12-22T00:12:46;7.00;99.90
79049;DHT22;68680;50.764;6.120;2023-12-22T00:15:12;7.00;99.90
79049;DHT22;68680;50.764;6.120;2023-12-22T00:17:39;7.00;99.90
79049;DHT22;68680;50.764;6.120;2023-12-22T00:20:05;7.00;99.90
79049;DHT22;68680;50.764;6.120;2023-12-22T00:22:31;7.20;99.90
79049;DHT22;68680;50.764;6.120;2023-12-22T00:24:57;7.30;99.90
79049;DHT22;68680;50.764;6.120;2023-12-22T00:27:23;7.40;99.90
79049;DHT22;68680;50.764;6.120;2023-12-22T00:29:48;7.40;99.90
79049;DHT22;68680;50.764;6.120;2023-12-22T00:32:14;7.40;99.90
79049;DHT22;68680;50.764;6.120;2023-12-22T00:34:41;7.20;99.90
79049;DHT22;68680;50.764;6.120;2023-12-22T00:37:06;6.90;99.90
79049;DHT22;68680;50.764;6.120;2023-12-22T00:39:32;6.70;99.90
79049;DHT22;68680;50.764;6.120;2023-12-22T00:41:57;6.50;99.90
79049;DHT22;68680;50.764;6.120;2023-12-22T00:44:23;6.40;99.90
79049;DHT22;68680;50.764;6.120;2023-12-22T00:46:49;6.40;99.90
79049;DHT22;68680;50.764;6.120;2023-12-22T00:49:14;6.50;99.90
79049;DHT22;68680;50.764;6.120;2023-12-22T00:51:41;6.50;99.90
79049;DHT22;68680;50.764;6.120;2023-12-22T00:54:07;6.50;99.90
79049;DHT22;68680;50.764;6.120;2023-12-22T00:56:35;6.50;99.90
79049;DHT22;68680;50.764;6.120;2023-12-22T00:59:00;6.70;99.90
79049;DHT22;68680;50.764;6.120;2023-12-22T01:01:26;6.50;99.90
79049;DHT22;68680;50.764;6.120;2023-12-22T01:03:51;6.40;99.90
79049;DHT22;68680;50.764;6.120;2023-12-22T01:06:17;6.30;99.90
79049;DHT22;68680;50.764;6.120;2023-12-22T01:08:44;6.20;99.90
79049;DHT22;68680;50.764;6.120;2023-12-22T01:11:09;6.10;99.90
79049;DHT22;68680;50.764;6.120;2023-12-22T01:13:35;6.10;99.90
79049;DHT22;68680;50.764;6.120;2023-12-22T01:16:01;6.00;99.90
79049;DHT22;68680;50.764;6.120;2023-12-22T01:18:26;5.90;99.90
79049;DHT22;68680;50.764;6.120;2023-12-22T01:20:52;5.80;99.90
79049;DHT22;68680;50.764;6.120;2023-12-22T01:23:17;5.80;99.90
79049;DHT22;68680;50.764;6.120;2023-12-22T01:25:44;5.80;99.90
79049;DHT22;68680;50.764;6.120;2023-12-22T01:28:10;5.80;99.90
79049;DHT22;68680;50.764;6.120;2023-12-22T01:30:36;5.90;99.90
79049;DHT22;68680;50.764;6.120;2023-12-22T01:33:01;5.90;99.90
79049;DHT22;68680;50.764;6.120;2023-12-22T01:35:27;5.90;99.90
79049;DHT22;68680;50.764;6.120;2023-12-22T01:37:52;5.70;99.90
79049;DHT22;68680;50.764;6.120;2023-12-22T01:40:18;5.50;99.90
79049;DHT22;68680;50.764;6.120;2023-12-22T01:42:45;5.40;99.90
79049;DHT22;68680;50.764;6.120;2023-12-22T01:45:11;5.40;99.90
79049;DHT22;68680;50.764;6.120;2023-12-22T01:47:37;5.30;99.90
79049;DHT22;68680;50.764;6.120;2023-12-22T01:50:04;5.20;99.90
79049;DHT22;68680;50.764;6.120;2023-12-22T01:52:30;5.20;99.90
79049;DHT22;68680;50.764;6.120;2023-12-22T01:54:56;5.20;99.90
79049;DHT22;68680;50.764;6.120;2023-12-22T01:57:21;5.20;99.90
79049;DHT22;68680;50.764;6.120;2023-12-22T01:59:49;5.20;99.90
79049;DHT22;68680;50.764;6.120;2023-12-22T02:02:15;5.20;99.90
79049;DHT22;68680;50.764;6.120;2023-12-22T02:04:41;5.30;99.90
79049;DHT22;68680;50.764;6.120;2023-12-22T02:07:08;5.50;99.90
79049;DHT22;68680;50.764;6.120;2023-12-22T02:09:34;5.60;99.90
79049;DHT22;68680;50.764;6.120;2023-12-22T02:12:00;5.60;99.90
79049;DHT22;68680;50.764;6.120;2023-12-22T02:14:25;5.70;99.90
79049;DHT22;68680;50.764;6.120;2023-12-22T02:16:57;5.70;99.90
79049;DHT22;68680;50.764;6.120;2023-12-22T02:19:40;5.80;99.90
79049;DHT22;68680;50.764;6.120;2023-12-22T02:22:07;5.90;99.90
79049;DHT22;68680;50.764;6.120;2023-12-22T02:24:34;5.90;99.90
79049;DHT22;68680;50.764;6.120;2023-12-22T02:27:04;5.90;99.90
79049;DHT22;68680;50.764;6.120;2023-12-22T02:29:30;5.90;99.90
79049;DHT22;68680;50.764;6.120;2023-12-22T02:31:59;5.90;99.90
79049;DHT22;68680;50.764;6.120;2023-12-22T02:34:26;5.90;99.90
79049;DHT22;68680;50.764;6.120;2023-12-22T02:36:53;5.90;99.90
79049;DHT22;68680;50.764;6.120;2023-12-22T02:39:19;5.90;99.90
79049;DHT22;68680;50.764;6.120;2023-12-22T02:41:47;5.90;99.90
79049;DHT22;68680;50.764;6.120;2023-12-22T02:44:13;6.00;99.90
79049;DHT22;68680;50.764;6.120;2023-12-22T02:46:38;6.10;99.90
79049;DHT22;68680;50.764;6.120;2023-12-22T02:49:04;6.20;99.90
79049;DHT22;68680;50.764;6.120;2023-12-22T02:51:30;6.30;99.90
79049;DHT22;68680;50.764;6.120;2023-12-22T02:53:56;6.40;99.90
79049;DHT22;68680;50.764;6.120;2023-12-22T02:56:21;6.50;99.90
79049;DHT22;68680;50.764;6.120;2023-12-22T02:58:48;6.60;99.90
79049;DHT22;68680;50.764;6.120;2023-12-22T03:01:14;6.70;99.90
79049;DHT22;68680;50.764;6.120;2023-12-22T03:03:39;6.60;99.90
79049;DHT22;68680;50.764;6.120;2023-12-22T03:06:05;6.60;99.90
79049;DHT22;68680;50.764;6.120;2023-12-22T03:08:30;6.40;99.90
79049;DHT22;68680;50.764;6.120;2023-12-22T03:10:56;6.30;99.90
79049;DHT22;68680;50.764;6.120;2023-12-22T03:13:22;6.00;99.90
79049;DHT22;68680;50.764;6.120;2023-12-22T03:15:49;5.80;99.90
79049;DHT22;68680;50.764;6.120;2023-12-22T03:18:14;5.70;99.90
79049;DHT22;68680;50.764;6.120;2023-12-22T03:20:40;5.60;99.90
79049;DHT22;68680;50.764;6.120;2023-12-22T03:23:05;5.60;99.90
79049;DHT22;68680;50.764;6.120;2023-12-22T03:25:31;5.60;99.90
79049;DHT22;68680;50.764;6.120;2023-12-22T03:27:57;5.60;99.90
79049;DHT22;68680;50.764;6.120;2023-12-22T03:30:22;5.70;99.90
79049;DHT22;68680;50.764;6.120;2023-12-22T03:32:49;5.70;99.90
79049;DHT22;68680;50.764;6.120;2023-12-22T03:35:15;5.70;99.90
79049;DHT22;68680;50.764;6.120;2023-12-22T03:37:40;5.80;99.90
79049;DHT22;68680;50.764;6.120;2023-12-22T03:40:07;5.70;99.90
79049;DHT22;68680;50.764;6.120;2023-12-22T03:42:33;5.80;99.90
79049;DHT22;68680;50.764;6.120;2023-12-22T03:44:58;5.80;99.90
79049;DHT22;68680;50.764;6.120;2023-12-22T03:47:24;5.90;99.90
79049;DHT22;68680;50.764;6.120;2023-12-22T03:49:51;6.10;99.90
79049;DHT22;68680;50.764;6.120;2023-12-22T03:52:17;6.30;99.90
79049;DHT22;68680;50.764;6.120;2023-12-22T03:54:42;6.40;99.90
79049;DHT22;68680;50.764;6.120;2023-12-22T03:57:08;6.50;99.90
79049;DHT22;68680;50.764;6.120;2023-12-22T03:59:33;6.50;99.90
79049;DHT22;68680;50.764;6.120;2023-12-22T04:01:59;6.50;99.90
79049;DHT22;68680;50.764;6.120;2023-12-22T04:04:25;6.60;99.90
79049;DHT22;68680;50.764;6.120;2023-12-22T04:06:51;6.60;99.90
79049;DHT22;68680;50.764;6.120;2023-12-22T04:09:17;6.60;99.90
79049;DHT22;68680;50.764;6.120;2023-12-22T04:11:43;6.70;99.90
79049;DHT22;68680;50.764;6.120;2023-12-22T04:14:08;6.60;99.90
79049;DHT22;68680;50.764;6.120;2023-12-22T04:16:36;6.60;99.90
79049;DHT22;68680;50.764;6.120;2023-12-22T04:19:02;6.60;99.90
79049;DHT22;68680;50.764;6.120;2023-12-22T04:21:27;6.50;99.90
79049;DHT22;68680;50.764;6.120;2023-12-22T04:23:54;6.50;99.90
79049;DHT22;68680;50.764;6.120;2023-12-22T04:26:20;6.50;99.90
79049;DHT22;68680;50.764;6.120;2023-12-22T04:28:46;6.50;99.90
79049;DHT22;68680;50.764;6.120;2023-12-22T04:31:11;6.50;99.90
79049;DHT22;68680;50.764;6.120;2023-12-22T04:33:37;6.50;99.90
79049;DHT22;68680;50.764;6.120;2023-12-22T04:36:03;6.60;99.90
79049;DHT22;68680;50.764;6.120;2023-12-22T04:38:29;6.70;99.90
79049;DHT22;68680;50.764;6.120;2023-12-22T04:40:56;6.80;99.90
79049;DHT22;68680;50.764;6.120;2023-12-22T04:43:21;6.80;99.90
79049;DHT22;68680;50.764;6.120;2023-12-22T04:45:47;6.80;99.90
79049;DHT22;68680;50.764;6.120;2023-12-22T04:48:12;6.80;99.90
79049;DHT22;68680;50.764;6.120;2023-12-22T04:50:38;6.80;99.90
79049;DHT22;68680;50.764;6.120;2023-12-22T04:53:03;6.80;99.90
79049;DHT22;68680;50.764;6.120;2023-12-22T04:55:29;6.80;99.90
79049;DHT22;68680;50.764;6.120;2023-12-22T04:57:56;6.90;99.90
79049;DHT22;68680;50.764;6.120;2023-12-22T05:00:21;6.90;99.90
79049;DHT22;68680;50.764;6.120;2023-12-22T05:02:47;6.90;99.90
79049;DHT22;68680;50.764;6.120;2023-12-22T05:05:13;6.90;99.90
79049;DHT22;68680;50.764;6.120;2023-12-22T05:07:38;7.00;99.90
79049;DHT22;68680;50.764;6.120;2023-12-22T05:10:04;7.00;99.90
79049;DHT22;68680;50.764;6.120;2023-12-22T05:12:30;7.00;99.90
79049;DHT22;68680;50.764;6.120;2023-12-22T05:14:57;7.00;99.90
79049;DHT22;68680;50.764;6.120;2023-12-22T05:17:22;7.00;99.90
79049;DHT22;68680;50.764;6.120;2023-12-22T05:19:48;7.00;99.90
79049;DHT22;68680;50.764;6.120;2023-12-22T05:22:14;7.00;99.90
79049;DHT22;68680;50.764;6.120;2023-12-22T05:24:39;7.00;99.90
79049;DHT22;68680;50.764;6.120;2023-12-22T05:27:05;7.00;99.90
79049;DHT22;68680;50.764;6.120;2023-12-22T05:29:30;7.10;99.90
79049;DHT22;68680;50.764;6.120;2023-12-22T05:31:57;7.10;99.90
79049;DHT22;68680;50.764;6.120;2023-12-22T05:34:23;6.90;99.90
79049;DHT22;68680;50.764;6.120;2023-12-22T05:36:48;6.90;99.90
79049;DHT22;68680;50.764;6.120;2023-12-22T05:39:14;6.90;99.90
79049;DHT22;68680;50.764;6.120;2023-12-22T05:41:40;6.90;99.90
79049;DHT22;68680;50.764;6.120;2023-12-22T05:44:05;6.80;99.90
79049;DHT22;68680;50.764;6.120;2023-12-22T05:46:31;6.60;99.90
79049;DHT22;68680;50.764;6.120;2023-12-22T05:49:01;6.60;99.90
79049;DHT22;68680;50.764;6.120;2023-12-22T05:51:27;6.60;99.90
79049;DHT22;68680;50.764;6.120;2023-12-22T05:53:53;6.60;99.90
79049;DHT22;68680;50.764;6.120;2023-12-22T05:56:18;6.60;99.90
79049;DHT22;68680;50.764;6.120;2023-12-22T05:58:44;6.70;99.90
79049;DHT22;68680;50.764;6.120;2023-12-22T06:01:14;6.80;99.90
79049;DHT22;68680;50.764;6.120;2023-12-22T06:03:40;6.90;99.90
79049;DHT22;68680;50.764;6.120;2023-12-22T06:06:07;6.90;99.90
79049;DHT22;68680;50.764;6.120;2023-12-22T06:08:32;7.00;99.90
79049;DHT22;68680;50.764;6.120;2023-12-22T06:10:58;7.00;99.90
79049;DHT22;68680;50.764;6.120;2023-12-22T06:13:23;7.10;99.90
79049;DHT22;68680;50.764;6.120;2023-12-22T06:15:49;7.10;99.90
79049;DHT22;68680;50.764;6.120;2023-12-22T06:18:14;7.10;99.90
79049;DHT22;68680;50.764;6.120;2023-12-22T06:20:40;7.10;99.90
79049;DHT22;68680;50.764;6.120;2023-12-22T06:23:07;7.10;99.90
79049;DHT22;68680;50.764;6.120;2023-12-22T06:25:33;7.10;99.90
79049;DHT22;68680;50.764;6.120;2023-12-22T06:27:58;7.10;99.90
79049;DHT22;68680;50.764;6.120;2023-12-22T06:30:24;7.10;99.90
79049;DHT22;68680;50.764;6.120;2023-12-22T06:32:49;7.10;99.90
79049;DHT22;68680;50.764;6.120;2023-12-22T06:35:15;7.10;99.90
79049;DHT22;68680;50.764;6.120;2023-12-22T06:37:41;7.20;99.90
79049;DHT22;68680;50.764;6.120;2023-12-22T06:40:08;7.20;99.90
79049;DHT22;68680;50.764;6.120;2023-12-22T06:42:34;7.20;99.90
79049;DHT22;68680;50.764;6.120;2023-12-22T06:45:00;7.10;99.90
79049;DHT22;68680;50.764;6.120;2023-12-22T06:47:25;7.00;99.90
79049;DHT22;68680;50.764;6.120;2023-12-22T06:49:51;6.90;99.90
79049;DHT22;68680;50.764;6.120;2023-12-22T06:52:16;6.80;99.90
79049;DHT22;68680;50.764;6.120;2023-12-22T06:54:42;6.80;99.90
79049;DHT22;68680;50.764;6.120;2023-12-22T06:57:09;6.90;99.90
79049;DHT22;68680;50.764;6.120;2023-12-22T06:59:34;6.90;99.90
79049;DHT22;68680;50.764;6.120;2023-12-22T07:02:00;6.90;99.90
79049;DHT22;68680;50.764;6.120;2023-12-22T07:05:01;6.90;99.90
79049;DHT22;68680;50.764;6.120;2023-12-22T07:07:26;6.90;99.90
79049;DHT22;68680;50.764;6.120;2023-12-22T07:09:52;6.90;99.90
79049;DHT22;68680;50.764;6.120;2023-12-22T07:12:19;7.00;99.90
79049;DHT22;68680;50.764;6.120;2023-12-22T07:14:44;7.00;99.90
79049;DHT22;68680;50.764;6.120;2023-12-22T07:17:10;7.00;99.90
79049;DHT22;68680;50.764;6.120;2023-12-22T07:19:35;7.00;99.90
79049;DHT22;68680;50.764;6.120;2023-12-22T07:22:01;6.90;99.90
79049;DHT22;68680;50.764;6.120;2023-12-22T07:24:26;6.80;99.90
79049;DHT22;68680;50.764;6.120;2023-12-22T07:26:52;6.80;99.90
79049;DHT22;68680;50.764;6.120;2023-12-22T07:29:19;6.70;99.90
79049;DHT22;68680;50.764;6.120;2023-12-22T07:31:45;6.80;99.90
79049;DHT22;68680;50.764;6.120;2023-12-22T07:34:10;6.70;99.90
79049;DHT22;68680;50.764;6.120;2023-12-22T07:36:36;6.80;99.90
79049;DHT22;68680;50.764;6.120;2023-12-22T07:39:01;6.80;99.90
79049;DHT22;68680;50.764;6.120;2023-12-22T07:41:27;6.80;99.90
79049;DHT22;68680;50.764;6.120;2023-12-22T07:43:53;6.90;99.90
79049;DHT22;68680;50.764;6.120;2023-12-22T07:46:20;6.90;99.90
79049;DHT22;68680;50.764;6.120;2023-12-22T07:48:46;6.90;99.90
79049;DHT22;68680;50.764;6.120;2023-12-22T07:51:11;6.80;99.90
79049;DHT22;68680;50.764;6.120;2023-12-22T07:53:37;6.80;99.90
79049;DHT22;68680;50.764;6.120;2023-12-22T07:56:03;6.80;99.90
79049;DHT22;68680;50.764;6.120;2023-12-22T07:58:29;6.80;99.90
79049;DHT22;68680;50.764;6.120;2023-12-22T08:00:54;6.80;99.90
79049;DHT22;68680;50.764;6.120;2023-12-22T08:03:21;6.80;99.90
79049;DHT22;68680;50.764;6.120;2023-12-22T08:05:47;6.80;99.90
79049;DHT22;68680;50.764;6.120;2023-12-22T08:08:12;6.80;99.90
79049;DHT22;68680;50.764;6.120;2023-12-22T08:10:38;6.80;99.90
79049;DHT22;68680;50.764;6.120;2023-12-22T08:13:04;6.90;99.90
79049;DHT22;68680;50.764;6.120;2023-12-22T08:15:29;6.90;99.90
79049;DHT22;68680;50.764;6.120;2023-12-22T08:17:55;7.00;99.90
79049;DHT22;68680;50.764;6.120;2023-12-22T08:20:22;7.00;99.90
79049;DHT22;68680;50.764;6.120;2023-12-22T08:22:48;7.10;99.90
79049;DHT22;68680;50.764;6.120;2023-12-22T08:25:14;7.10;99.90
79049;DHT22;68680;50.764;6.120;2023-12-22T08:27:40;7.20;99.90
79049;DHT22;68680;50.764;6.120;2023-12-22T08:30:06;7.20;99.90
79049;DHT22;68680;50.764;6.120;2023-12-22T08:32:32;7.20;99.90
79049;DHT22;68680;50.764;6.120;2023-12-22T08:34:58;7.30;99.90
79049;DHT22;68680;50.764;6.120;2023-12-22T08:37:25;7.30;99.90
79049;DHT22;68680;50.764;6.120;2023-12-22T08:39:50;7.40;99.90
79049;DHT22;68680;50.764;6.120;2023-12-22T08:42:16;7.40;99.90
79049;DHT22;68680;50.764;6.120;2023-12-22T08:44:42;7.40;99.90
79049;DHT22;68680;50.764;6.120;2023-12-22T08:47:07;7.40;99.90
79049;DHT22;68680;50.764;6.120;2023-12-22T08:49:33;7.40;99.90
79049;DHT22;68680;50.764;6.120;2023-12-22T08:51:58;7.40;99.90
79049;DHT22;68680;50.764;6.120;2023-12-22T08:54:25;7.40;99.90
79049;DHT22;68680;50.764;6.120;2023-12-22T08:56:51;7.40;99.90
79049;DHT22;68680;50.764;6.120;2023-12-22T08:59:16;7.40;99.90
79049;DHT22;68680;50.764;6.120;2023-12-22T09:01:42;7.30;99.90
79049;DHT22;68680;50.764;6.120;2023-12-22T09:04:09;7.40;99.90
79049;DHT22;68680;50.764;6.120;2023-12-22T09:06:35;7.40;99.90
79049;DHT22;68680;50.764;6.120;2023-12-22T09:09:01;7.40;99.90
79049;DHT22;68680;50.764;6.120;2023-12-22T09:11:27;7.40;99.90
79049;DHT22;68680;50.764;6.120;2023-12-22T09:13:53;7.40;99.90
79049;DHT22;68680;50.764;6.120;2023-12-22T09:16:20;7.30;99.90
79049;DHT22;68680;50.764;6.120;2023-12-22T09:18:46;7.30;99.90
79049;DHT22;68680;50.764;6.120;2023-12-22T09:21:12;7.30;99.90
79049;DHT22;68680;50.764;6.120;2023-12-22T09:23:37;7.30;99.90
79049;DHT22;68680;50.764;6.120;2023-12-22T09:26:03;7.30;99.90
79049;DHT22;68680;50.764;6.120;2023-12-22T09:28:30;7.30;99.90
79049;DHT22;68680;50.764;6.120;2023-12-22T09:30:56;7.30;99.90
79049;DHT22;68680;50.764;6.120;2023-12-22T09:33:21;7.30;99.90
79049;DHT22;68680;50.764;6.120;2023-12-22T09:35:47;7.30;99.90
79049;DHT22;68680;50.764;6.120;2023-12-22T09:38:13;7.30;99.90
79049;DHT22;68680;50.764;6.120;2023-12-22T09:40:39;7.30;99.90
79049;DHT22;68680;50.764;6.120;2023-12-22T09:43:06;7.40;99.90
79049;DHT22;68680;50.764;6.120;2023-12-22T09:45:34;7.40;99.90
79049;DHT22;68680;50.764;6.120;2023-12-22T09:48:00;7.40;99.90
79049;DHT22;68680;50.764;6.120;2023-12-22T09:50:26;7.50;99.90
79049;DHT22;68680;50.764;6.120;2023-12-22T09:52:52;7.50;99.90
79049;DHT22;68680;50.764;6.120;2023-12-22T09:55:19;7.50;99.90
79049;DHT22;68680;50.764;6.120;2023-12-22T09:57:47;7.50;99.90
79049;DHT22;68680;50.764;6.120;2023-12-22T10:00:14;7.50;99.90
79049;DHT22;68680;50.764;6.120;2023-12-22T10:02:42;7.60;99.90
79049;DHT22;68680;50.764;6.120;2023-12-22T10:05:08;7.60;99.90
79049;DHT22;68680;50.764;6.120;2023-12-22T10:07:34;7.60;99.90
79049;DHT22;68680;50.764;6.120;2023-12-22T10:10:00;7.60;99.90
79049;DHT22;68680;50.764;6.120;2023-12-22T10:12:27;7.60;99.90
79049;DHT22;68680;50.764;6.120;2023-12-22T10:14:54;7.70;99.90
79049;DHT22;68680;50.764;6.120;2023-12-22T10:17:20;7.70;99.90
79049;DHT22;68680;50.764;6.120;2023-12-22T10:19:47;7.70;99.90
79049;DHT22;68680;50.764;6.120;2023-12-22T10:22:13;7.80;99.90
79049;DHT22;68680;50.764;6.120;2023-12-22T10:24:39;7.80;99.90
79049;DHT22;68680;50.764;6.120;2023-12-22T10:27:05;7.90;99.90
79049;DHT22;68680;50.764;6.120;2023-12-22T10:29:31;8.00;99.90
79049;DHT22;68680;50.764;6.120;2023-12-22T10:31:57;8.10;99.90
79049;DHT22;68680;50.764;6.120;2023-12-22T10:34:22;8.10;99.90
79049;DHT22;68680;50.764;6.120;2023-12-22T10:36:49;8.10;99.90
79049;DHT22;68680;50.764;6.120;2023-12-22T10:39:15;8.10;99.90
79049;DHT22;68680;50.764;6.120;2023-12-22T10:41:41;8.20;99.90
79049;DHT22;68680;50.764;6.120;2023-12-22T10:44:07;8.20;99.90
79049;DHT22;68680;50.764;6.120;2023-12-22T10:46:34;8.30;99.90
79049;DHT22;68680;50.764;6.120;2023-12-22T10:48:59;8.30;99.90
79049;DHT22;68680;50.764;6.120;2023-12-22T10:51:25;8.30;99.90
79049;DHT22;68680;50.764;6.120;2023-12-22T10:53:52;8.30;99.90
79049;DHT22;68680;50.764;6.120;2023-12-22T10:56:17;8.30;99.90
79049;DHT22;68680;50.764;6.120;2023-12-22T10:58:43;8.30;99.90
79049;DHT22;68680;50.764;6.120;2023-12-22T11:01:09;8.30;99.90
79049;DHT22;68680;50.764;6.120;2023-12-22T11:03:38;8.40;99.90
79049;DHT22;68680;50.764;6.120;2023-12-22T11:06:06;8.40;99.90
79049;DHT22;68680;50.764;6.120;2023-12-22T11:08:36;8.30;99.90
79049;DHT22;68680;50.764;6.120;2023-12-22T11:11:09;8.30;99.90
79049;DHT22;68680;50.764;6.120;2023-12-22T11:13:39;8.30;99.90
79049;DHT22;68680;50.764;6.120;2023-12-22T11:16:06;8.40;99.90
79049;DHT22;68680;50.764;6.120;2023-12-22T11:18:33;8.40;99.90
79049;DHT22;68680;50.764;6.120;2023-12-22T11:21:01;8.40;99.90
79049;DHT22;68680;50.764;6.120;2023-12-22T11:23:30;8.40;99.90
79049;DHT22;68680;50.764;6.120;2023-12-22T11:25:58;8.50;99.90
79049;DHT22;68680;50.764;6.120;2023-12-22T11:28:25;8.50;99.90
79049;DHT22;68680;50.764;6.120;2023-12-22T11:30:51;8.50;99.90
79049;DHT22;68680;50.764;6.120;2023-12-22T11:33:18;8.50;99.90
79049;DHT22;68680;50.764;6.120;2023-12-22T11:35:45;8.50;99.90
79049;DHT22;68680;50.764;6.120;2023-12-22T11:38:11;8.60;99.90
79049;DHT22;68680;50.764;6.120;2023-12-22T11:40:39;8.60;99.90
79049;DHT22;68680;50.764;6.120;2023-12-22T11:43:12;8.60;99.90
79049;DHT22;68680;50.764;6.120;2023-12-22T11:45:41;8.70;99.90
79049;DHT22;68680;50.764;6.120;2023-12-22T11:48:08;8.70;99.90
79049;DHT22;68680;50.764;6.120;2023-12-22T11:50:34;8.70;99.90
79049;DHT22;68680;50.764;6.120;2023-12-22T11:53:17;8.70;99.90
79049;DHT22;68680;50.764;6.120;2023-12-22T11:56:00;8.70;99.90
79049;DHT22;68680;50.764;6.120;2023-12-22T11:58:36;8.80;99.90
79049;DHT22;68680;50.764;6.120;2023-12-22T12:01:05;8.90;99.90
79049;DHT22;68680;50.764;6.120;2023-12-22T12:03:31;8.90;99.90
79049;DHT22;68680;50.764;6.120;2023-12-22T12:06:10;8.90;99.90
79049;DHT22;68680;50.764;6.120;2023-12-22T12:08:36;8.90;99.90
79049;DHT22;68680;50.764;6.120;2023-12-22T12:11:02;8.90;99.90
79049;DHT22;68680;50.764;6.120;2023-12-22T12:13:28;8.90;99.90
79049;DHT22;68680;50.764;6.120;2023-12-22T12:15:55;8.80;99.90
79049;DHT22;68680;50.764;6.120;2023-12-22T12:18:23;8.80;99.90
79049;DHT22;68680;50.764;6.120;2023-12-22T12:20:48;8.80;99.90
79049;DHT22;68680;50.764;6.120;2023-12-22T12:23:15;8.80;99.90
79049;DHT22;68680;50.764;6.120;2023-12-22T12:25:42;8.80;99.90
79049;DHT22;68680;50.764;6.120;2023-12-22T12:28:08;8.90;99.90
79049;DHT22;68680;50.764;6.120;2023-12-22T12:30:36;8.80;99.90
79049;DHT22;68680;50.764;6.120;2023-12-22T12:33:06;8.80;99.90
79049;DHT22;68680;50.764;6.120;2023-12-22T12:35:34;8.70;99.90
79049;DHT22;68680;50.764;6.120;2023-12-22T12:38:00;8.70;99.90
79049;DHT22;68680;50.764;6.120;2023-12-22T12:40:27;8.70;99.90
79049;DHT22;68680;50.764;6.120;2023-12-22T12:42:53;8.70;99.90
79049;DHT22;68680;50.764;6.120;2023-12-22T12:45:22;8.60;99.90
79049;DHT22;68680;50.764;6.120;2023-12-22T12:47:55;8.70;99.90
79049;DHT22;68680;50.764;6.120;2023-12-22T12:50:22;8.60;99.90
79049;DHT22;68680;50.764;6.120;2023-12-22T12:52:49;8.60;99.90
79049;DHT22;68680;50.764;6.120;2023-12-22T12:55:17;8.60;99.90
79049;DHT22;68680;50.764;6.120;2023-12-22T12:57:42;8.60;99.90
79049;DHT22;68680;50.764;6.120;2023-12-22T13:00:09;8.60;99.90
79049;DHT22;68680;50.764;6.120;2023-12-22T13:02:35;8.60;99.90
79049;DHT22;68680;50.764;6.120;2023-12-22T13:05:01;8.70;99.90
79049;DHT22;68680;50.764;6.120;2023-12-22T13:07:27;8.70;99.90
79049;DHT22;68680;50.764;6.120;2023-12-22T13:09:54;8.70;99.90
79049;DHT22;68680;50.764;6.120;2023-12-22T13:12:19;8.70;99.90
79049;DHT22;68680;50.764;6.120;2023-12-22T13:14:45;8.70;99.90
79049;DHT22;68680;50.764;6.120;2023-12-22T13:17:11;8.70;99.90
79049;DHT22;68680;50.764;6.120;2023-12-22T13:19:36;8.70;99.90
79049;DHT22;68680;50.764;6.120;2023-12-22T13:22:02;8.70;99.90
79049;DHT22;68680;50.764;6.120;2023-12-22T13:24:28;8.70;99.90
79049;DHT22;68680;50.764;6.120;2023-12-22T13:27:02;8.70;99.90
79049;DHT22;68680;50.764;6.120;2023-12-22T13:29:28;8.70;99.90
79049;DHT22;68680;50.764;6.120;2023-12-22T13:31:54;8.70;99.90
79049;DHT22;68680;50.764;6.120;2023-12-22T13:34:20;8.80;99.90
79049;DHT22;68680;50.764;6.120;2023-12-22T13:36:46;8.70;99.90
79049;DHT22;68680;50.764;6.120;2023-12-22T13:39:12;8.80;99.90
79049;DHT22;68680;50.764;6.120;2023-12-22T13:41:38;8.80;99.90
79049;DHT22;68680;50.764;6.120;2023-12-22T13:44:06;8.80;99.90
79049;DHT22;68680;50.764;6.120;2023-12-22T13:46:33;8.80;99.90
79049;DHT22;68680;50.764;6.120;2023-12-22T13:48:58;8.80;99.90
79049;DHT22;68680;50.764;6.120;2023-12-22T13:51:24;8.70;99.90
79049;DHT22;68680;50.764;6.120;2023-12-22T13:53:50;8.60;99.90
79049;DHT22;68680;50.764;6.120;2023-12-22T13:56:16;8.60;99.90
79049;DHT22;68680;50.764;6.120;2023-12-22T13:58:45;8.60;99.90
79049;DHT22;68680;50.764;6.120;2023-12-22T14:01:14;8.60;99.90
79049;DHT22;68680;50.764;6.120;2023-12-22T14:03:40;8.50;99.90
79049;DHT22;68680;50.764;6.120;2023-12-22T14:06:06;8.60;99.90
79049;DHT22;68680;50.764;6.120;2023-12-22T14:08:31;8.60;99.90
79049;DHT22;68680;50.764;6.120;2023-12-22T14:10:57;8.60;99.90
79049;DHT22;68680;50.764;6.120;2023-12-22T14:13:23;8.70;99.90
79049;DHT22;68680;50.764;6.120;2023-12-22T14:15:48;8.60;99.90
79049;DHT22;68680;50.764;6.120;2023-12-22T14:18:15;8.70;99.90
79049;DHT22;68680;50.764;6.120;2023-12-22T14:20:41;8.70;99.90
79049;DHT22;68680;50.764;6.120;2023-12-22T14:23:06;8.80;99.90
79049;DHT22;68680;50.764;6.120;2023-12-22T14:25:32;8.70;99.90
79049;DHT22;68680;50.764;6.120;2023-12-22T14:27:57;8.60;99.90
79049;DHT22;68680;50.764;6.120;2023-12-22T14:30:23;8.60;99.90
79049;DHT22;68680;50.764;6.120;2023-12-22T14:32:49;8.60;99.90
79049;DHT22;68680;50.764;6.120;2023-12-22T14:35:16;8.60;99.90
79049;DHT22;68680;50.764;6.120;2023-12-22T14:37:42;8.50;99.90
79049;DHT22;68680;50.764;6.120;2023-12-22T14:40:08;8.50;99.90
79049;DHT22;68680;50.764;6.120;2023-12-22T14:42:34;8.50;99.90
79049;DHT22;68680;50.764;6.120;2023-12-22T14:44:59;8.50;99.90
79049;DHT22;68680;50.764;6.120;2023-12-22T14:47:25;8.40;99.90
79049;DHT22;68680;50.764;6.120;2023-12-22T14:49:50;8.50;99.90
79049;DHT22;68680;50.764;6.120;2023-12-22T14:52:17;8.40;99.90
79049;DHT22;68680;50.764;6.120;2023-12-22T14:54:43;8.40;99.90
79049;DHT22;68680;50.764;6.120;2023-12-22T14:57:09;8.40;99.90
79049;DHT22;68680;50.764;6.120;2023-12-22T14:59:34;8.40;99.90
79049;DHT22;68680;50.764;6.120;2023-12-22T15:02:00;8.40;99.90
79049;DHT22;68680;50.764;6.120;2023-12-22T15:04:25;8.40;99.90
79049;DHT22;68680;50.764;6.120;2023-12-22T15:06:51;8.40;99.90
79049;DHT22;68680;50.764;6.120;2023-12-22T15:09:18;8.40;99.90
79049;DHT22;68680;50.764;6.120;2023-12-22T15:11:44;8.40;99.90
79049;DHT22;68680;50.764;6.120;2023-12-22T15:14:10;8.40;99.90
79049;DHT22;68680;50.764;6.120;2023-12-22T15:16:39;8.40;99.90
79049;DHT22;68680;50.764;6.120;2023-12-22T15:19:04;8.40;99.90
79049;DHT22;68680;50.764;6.120;2023-12-22T15:21:30;8.40;99.90
79049;DHT22;68680;50.764;6.120;2023-12-22T15:23:55;8.40;99.90
79049;DHT22;68680;50.764;6.120;2023-12-22T15:26:23;8.50;99.90
79049;DHT22;68680;50.764;6.120;2023-12-22T15:28:49;8.40;99.90
79049;DHT22;68680;50.764;6.120;2023-12-22T15:31:14;8.40;99.90
79049;DHT22;68680;50.764;6.120;2023-12-22T15:33:40;8.40;99.90
79049;DHT22;68680;50.764;6.120;2023-12-22T15:36:06;8.40;99.90
79049;DHT22;68680;50.764;6.120;2023-12-22T15:38:32;8.40;99.90